createdAt,value
2022-12-03T00:01:10.237Z,76.42
2022-12-03T00:03:13.716Z,74.71
2022-12-03T00:05:17.333Z,76.52
2022-12-03T00:07:22.259Z,75.13
2022-12-03T00:09:25.643Z,75.72
2022-12-03T00:11:29.165Z,74.64
2022-12-03T00:13:32.720Z,75.22
2022-12-03T00:15:36.097Z,82.76
2022-12-03T00:17:39.488Z,75.71
2022-12-03T00:19:42.777Z,74.75
2022-12-03T00:21:46.070Z,75.23
2022-12-03T00:23:50.789Z,74.51
2022-12-03T00:25:54.086Z,74.50
2022-12-03T00:27:57.336Z,74.17
2022-12-03T00:30:00.645Z,75.16
2022-12-03T00:32:03.929Z,74.38
2022-12-03T00:34:07.269Z,74.90
2022-12-03T00:36:10.989Z,74.56
2022-12-03T00:38:14.488Z,75.77
2022-12-03T00:40:19.304Z,75.00
2022-12-03T00:42:22.665Z,75.36
2022-12-03T00:44:26.061Z,75.10
2022-12-03T00:46:29.528Z,74.56
2022-12-03T00:48:32.996Z,74.40
2022-12-03T00:50:36.271Z,75.07
2022-12-03T00:52:39.642Z,74.83
2022-12-03T00:54:42.947Z,74.83
2022-12-03T00:56:47.649Z,74.41
2022-12-03T00:58:50.963Z,74.61
2022-12-03T01:00:54.395Z,74.96
2022-12-03T01:02:57.885Z,75.39
2022-12-03T01:05:01.512Z,75.15
2022-12-03T01:07:04.921Z,74.49
2022-12-03T01:09:08.280Z,74.90
2022-12-03T01:11:25.536Z,74.73
2022-12-03T01:13:30.302Z,75.49
2022-12-03T01:15:33.631Z,75.25
2022-12-03T01:17:37.361Z,75.49
2022-12-03T01:19:44.980Z,75.01
2022-12-03T01:21:52.697Z,74.90
2022-12-03T01:23:56.036Z,74.68
2022-12-03T01:25:59.373Z,75.06
2022-12-03T01:28:02.681Z,75.09
2022-12-03T01:30:09.259Z,74.48
2022-12-03T01:32:17.377Z,74.59
2022-12-03T01:34:20.761Z,74.39
2022-12-03T01:36:24.163Z,74.45
2022-12-03T01:38:27.437Z,74.04
2022-12-03T01:40:30.913Z,74.26
2022-12-03T01:42:37.367Z,73.99
2022-12-03T01:44:41.569Z,74.89
2022-12-03T01:46:47.657Z,74.03
2022-12-03T01:48:53.778Z,74.29
2022-12-03T01:50:57.077Z,74.87
2022-12-03T01:53:04.514Z,74.60
2022-12-03T01:55:14.990Z,74.61
2022-12-03T01:57:22.620Z,74.05
2022-12-03T01:59:33.420Z,74.55
2022-12-03T02:01:36.765Z,73.41
2022-12-03T02:03:43.623Z,73.78
2022-12-03T02:05:47.335Z,73.84
2022-12-03T02:07:51.070Z,73.48
2022-12-03T02:09:56.176Z,73.81
2022-12-03T02:11:59.660Z,73.90
2022-12-03T02:14:06.395Z,74.05
2022-12-03T02:16:10.160Z,73.40
2022-12-03T02:18:13.623Z,74.60
2022-12-03T02:20:20.369Z,74.14
2022-12-03T02:22:32.685Z,73.96
2022-12-03T02:24:41.423Z,73.29
2022-12-03T02:26:46.184Z,74.30
2022-12-03T02:28:49.497Z,74.05
2022-12-03T02:30:52.902Z,73.63
2022-12-03T02:32:57.639Z,74.15
2022-12-03T02:35:00.981Z,73.67
2022-12-03T02:37:06.978Z,74.13
2022-12-03T02:39:10.509Z,74.59
2022-12-03T02:41:32.121Z,73.83
2022-12-03T02:43:37.650Z,73.96
2022-12-03T02:45:43.893Z,74.33
2022-12-03T02:47:50.764Z,74.14
2022-12-03T02:49:54.071Z,74.37
2022-12-03T02:51:57.784Z,74.32
2022-12-03T02:54:01.664Z,74.28
2022-12-03T02:56:06.584Z,73.99
2022-12-03T02:58:11.234Z,73.45
2022-12-03T03:00:17.507Z,74.24
2022-12-03T03:02:21.704Z,74.53
2022-12-03T03:04:25.490Z,74.45
2022-12-03T03:06:29.042Z,74.59
2022-12-03T03:08:32.970Z,74.92
2022-12-03T03:10:38.212Z,74.94
2022-12-03T03:12:41.996Z,74.52
2022-12-03T03:14:46.581Z,74.23
2022-12-03T03:16:56.027Z,74.58
2022-12-03T03:18:59.583Z,74.44
2022-12-03T03:21:03.718Z,73.73
2022-12-03T03:23:13.987Z,74.26
2022-12-03T03:25:21.012Z,74.99
2022-12-03T03:27:24.451Z,74.32
2022-12-03T03:29:27.930Z,73.98
2022-12-03T03:31:31.449Z,74.43
2022-12-03T03:33:37.659Z,74.45
2022-12-03T03:35:41.736Z,74.58
2022-12-03T03:37:45.152Z,74.17
2022-12-03T03:39:48.828Z,73.92
2022-12-03T03:41:52.277Z,74.97
2022-12-03T03:43:56.442Z,74.70
2022-12-03T03:46:00.171Z,74.73
2022-12-03T03:48:04.007Z,75.62
2022-12-03T03:50:11.398Z,75.49
2022-12-03T03:52:15.037Z,74.40
2022-12-03T03:54:18.867Z,74.85
2022-12-03T03:56:24.673Z,75.20
2022-12-03T03:58:28.240Z,74.79
2022-12-03T04:00:32.485Z,75.53
2022-12-03T04:02:35.983Z,74.60
2022-12-03T04:04:39.370Z,75.66
2022-12-03T04:06:44.111Z,75.42
2022-12-03T04:08:47.465Z,75.30
2022-12-03T04:11:08.543Z,75.83
2022-12-03T04:13:10.958Z,75.36
2022-12-03T04:15:14.491Z,75.55
2022-12-03T04:17:18.817Z,75.37
2022-12-03T04:19:23.398Z,75.65
2022-12-03T04:21:57.490Z,75.59
2022-12-03T04:24:02.576Z,75.92
2022-12-03T04:26:23.730Z,75.62
2022-12-03T04:28:44.936Z,75.99
2022-12-03T04:31:23.601Z,76.80
2022-12-03T04:33:44.569Z,76.02
2022-12-03T04:35:47.179Z,77.54
2022-12-03T04:37:50.648Z,76.46
2022-12-03T04:39:55.492Z,76.39
2022-12-03T04:41:58.832Z,76.25
2022-12-03T04:44:19.957Z,76.53
2022-12-03T04:46:23.344Z,76.10
2022-12-03T04:48:26.933Z,76.51
2022-12-03T04:50:30.203Z,77.16
2022-12-03T04:52:33.499Z,76.49
2022-12-03T04:54:36.990Z,76.81
2022-12-03T04:56:41.644Z,77.04
2022-12-03T04:58:47.143Z,76.57
2022-12-03T05:00:50.587Z,76.59
2022-12-03T05:02:53.975Z,76.56
2022-12-03T05:04:57.351Z,77.39
2022-12-03T05:07:00.682Z,77.24
2022-12-03T05:09:04.627Z,76.84
2022-12-03T05:11:08.263Z,76.77
2022-12-03T05:13:12.915Z,76.63
2022-12-03T05:15:16.525Z,76.75
2022-12-03T05:17:19.914Z,77.85
2022-12-03T05:19:43.288Z,77.72
2022-12-03T05:21:45.632Z,77.74
2022-12-03T05:23:48.962Z,77.80
2022-12-03T05:25:52.482Z,77.29
2022-12-03T05:27:55.797Z,77.61
2022-12-03T05:30:00.450Z,77.95
2022-12-03T05:32:03.906Z,77.90
2022-12-03T05:34:07.178Z,77.79
2022-12-03T05:36:10.888Z,78.17
2022-12-03T05:38:14.476Z,78.00
2022-12-03T05:40:17.989Z,77.66
2022-12-03T05:42:39.251Z,77.42
2022-12-03T05:44:42.533Z,78.04
2022-12-03T05:46:47.250Z,78.34
2022-12-03T05:48:50.832Z,77.44
2022-12-03T05:50:54.103Z,78.32
2022-12-03T05:52:58.758Z,77.07
2022-12-03T05:55:02.103Z,77.44
2022-12-03T05:57:05.502Z,77.64
2022-12-03T05:59:08.796Z,77.06
2022-12-03T06:01:12.170Z,77.53
2022-12-03T06:03:16.892Z,77.41
2022-12-03T06:05:20.823Z,77.80
2022-12-03T06:07:24.325Z,78.70
2022-12-03T06:09:27.727Z,78.55
2022-12-03T06:11:33.916Z,78.20
2022-12-03T06:13:37.244Z,77.93
2022-12-03T06:15:43.956Z,77.59
2022-12-03T06:17:47.716Z,78.60
2022-12-03T06:19:52.357Z,79.22
2022-12-03T06:21:55.691Z,79.02
2022-12-03T06:23:59.909Z,78.88
2022-12-03T06:26:03.209Z,78.79
2022-12-03T06:28:07.325Z,78.46
2022-12-03T06:30:13.396Z,79.22
2022-12-03T06:32:16.752Z,79.63
2022-12-03T06:34:20.115Z,79.09
2022-12-03T06:36:26.121Z,77.92
2022-12-03T06:38:29.476Z,78.16
2022-12-03T06:40:32.773Z,78.01
2022-12-03T06:42:36.085Z,78.69
2022-12-03T06:44:39.402Z,78.17
2022-12-03T06:46:42.760Z,78.23
2022-12-03T06:48:46.518Z,78.47
2022-12-03T06:50:49.937Z,78.29
2022-12-03T06:52:54.550Z,78.05
2022-12-03T06:54:57.998Z,78.20
2022-12-03T06:57:04.251Z,78.30
2022-12-03T06:59:07.626Z,78.15
2022-12-03T07:01:11.079Z,78.38
2022-12-03T07:03:14.527Z,77.94
2022-12-03T07:05:18.209Z,78.03
2022-12-03T07:07:21.569Z,77.20
2022-12-03T07:09:26.373Z,78.04
2022-12-03T07:11:32.754Z,77.59
2022-12-03T07:13:36.036Z,78.13
2022-12-03T07:15:39.453Z,78.06
2022-12-03T07:17:42.795Z,77.37
2022-12-03T07:19:46.066Z,77.55
2022-12-03T07:21:49.720Z,77.47
2022-12-03T07:23:52.972Z,77.65
2022-12-03T07:25:57.645Z,77.54
2022-12-03T07:28:01.003Z,77.45
2022-12-03T07:30:05.128Z,78.28
2022-12-03T07:32:08.453Z,77.38
2022-12-03T07:34:11.816Z,77.40
2022-12-03T07:36:15.149Z,77.58
2022-12-03T07:38:18.513Z,77.08
2022-12-03T07:40:22.132Z,77.11
2022-12-03T07:42:27.045Z,76.95
2022-12-03T07:44:31.577Z,76.69
2022-12-03T07:46:35.141Z,75.95
2022-12-03T07:48:38.964Z,76.35
2022-12-03T07:50:42.276Z,75.77
2022-12-03T07:52:45.649Z,76.10
2022-12-03T07:54:49.805Z,75.48
2022-12-03T07:56:57.978Z,75.50
2022-12-03T07:59:05.763Z,75.42
2022-12-03T08:01:10.302Z,75.43
2022-12-03T08:03:13.801Z,74.96
2022-12-03T08:05:17.101Z,76.13
2022-12-03T08:07:20.363Z,75.22
2022-12-03T08:09:23.696Z,76.04
2022-12-03T08:11:30.172Z,76.39
2022-12-03T08:13:35.243Z,74.89
2022-12-03T08:15:39.947Z,75.32
2022-12-03T08:17:44.313Z,75.32
2022-12-03T08:19:48.358Z,74.67
2022-12-03T08:21:55.196Z,74.98
2022-12-03T08:24:13.755Z,74.65
2022-12-03T08:26:23.339Z,74.56
2022-12-03T08:28:27.528Z,75.48
2022-12-03T08:30:30.912Z,74.65
2022-12-03T08:32:36.005Z,74.71
2022-12-03T08:34:40.842Z,74.69
2022-12-03T08:36:44.653Z,75.56
2022-12-03T08:38:52.147Z,75.31
2022-12-03T08:40:56.295Z,74.96
2022-12-03T08:42:58.611Z,75.47
2022-12-03T08:45:40.982Z,76.64
2022-12-03T08:47:46.282Z,77.09
2022-12-03T08:49:54.867Z,77.61
2022-12-03T08:52:01.523Z,76.32
2022-12-03T08:54:13.835Z,76.31
2022-12-03T08:56:24.879Z,75.95
2022-12-03T08:58:38.137Z,76.23
2022-12-03T09:00:42.745Z,75.75
2022-12-03T09:02:50.417Z,76.35
2022-12-03T09:04:54.797Z,76.91
2022-12-03T09:06:58.896Z,77.23
2022-12-03T09:09:06.530Z,76.72
2022-12-03T09:11:10.286Z,76.58
2022-12-03T09:13:13.630Z,77.05
2022-12-03T09:15:17.157Z,76.77
2022-12-03T09:17:20.438Z,76.46
2022-12-03T09:19:26.084Z,76.37
2022-12-03T09:21:29.442Z,76.45
2022-12-03T09:23:33.633Z,76.35
2022-12-03T09:25:36.945Z,75.90
2022-12-03T09:27:40.334Z,76.49
2022-12-03T09:29:43.692Z,76.12
2022-12-03T09:31:47.039Z,76.07
2022-12-03T09:33:50.668Z,75.13
2022-12-03T09:35:55.350Z,76.06
2022-12-03T09:37:58.770Z,75.29
2022-12-03T09:40:02.340Z,75.27
2022-12-03T09:42:06.146Z,82.98
2022-12-03T09:44:15.777Z,79.65
2022-12-03T09:46:22.118Z,74.67
2022-12-03T09:48:25.998Z,74.03
2022-12-03T09:50:30.191Z,73.02
2022-12-03T09:52:35.483Z,74.00
2022-12-03T09:54:45.596Z,74.14
2022-12-03T09:56:50.325Z,75.12
2022-12-03T09:58:53.781Z,75.20
2022-12-03T10:00:58.009Z,75.32
2022-12-03T10:03:04.010Z,75.00
2022-12-03T10:05:07.806Z,74.10
2022-12-03T10:07:11.586Z,74.54
2022-12-03T10:09:23.374Z,74.05
2022-12-03T10:11:27.624Z,74.41
2022-12-03T10:13:34.544Z,75.62
2022-12-03T10:15:38.224Z,74.22
2022-12-03T10:17:43.841Z,73.25
2022-12-03T10:19:47.399Z,73.28
2022-12-03T10:21:51.377Z,73.98
2022-12-03T10:24:20.976Z,72.95
2022-12-03T10:26:39.957Z,72.97
2022-12-03T10:28:47.581Z,73.55
2022-12-03T10:30:56.236Z,73.35
2022-12-03T10:33:02.611Z,73.69
2022-12-03T10:35:11.832Z,72.06
2022-12-03T10:37:17.775Z,72.84
2022-12-03T10:39:22.460Z,72.51
2022-12-03T10:41:27.989Z,72.06
2022-12-03T10:43:31.320Z,72.07
2022-12-03T10:45:35.531Z,71.92
2022-12-03T10:47:39.454Z,71.75
2022-12-03T10:49:43.588Z,72.32
2022-12-03T10:51:48.692Z,72.22
2022-12-03T10:53:52.276Z,71.09
2022-12-03T10:55:59.487Z,71.99
2022-12-03T10:58:02.954Z,72.53
2022-12-03T11:00:08.495Z,72.36
2022-12-03T11:02:19.761Z,73.57
2022-12-03T11:04:27.052Z,73.29
2022-12-03T11:06:32.866Z,74.93
2022-12-03T11:08:38.245Z,74.31
2022-12-03T11:10:41.652Z,73.84
2022-12-03T11:13:26.058Z,74.19
2022-12-03T11:15:43.540Z,73.07
2022-12-03T11:17:49.991Z,73.63
2022-12-03T11:19:53.414Z,74.44
2022-12-03T11:22:27.063Z,74.17
2022-12-03T11:24:30.804Z,74.19
2022-12-03T11:27:25.854Z,73.63
2022-12-03T11:29:50.648Z,73.83
2022-12-03T11:31:53.982Z,73.94
2022-12-03T11:34:49.501Z,73.03
2022-12-03T11:37:23.225Z,72.67
2022-12-03T11:40:14.613Z,73.61
2022-12-03T11:42:39.933Z,73.07
2022-12-03T11:44:47.865Z,73.59
2022-12-03T11:46:52.646Z,73.40
2022-12-03T11:49:00.126Z,73.72
2022-12-03T11:51:03.468Z,73.65
2022-12-03T11:53:15.409Z,73.68
2022-12-03T11:55:25.084Z,74.25
2022-12-03T11:57:38.313Z,74.08
2022-12-03T12:00:05.911Z,73.32
2022-12-03T12:02:21.886Z,73.12
2022-12-03T12:04:32.044Z,72.62
2022-12-03T12:06:42.602Z,72.85
2022-12-03T12:08:57.358Z,72.22
2022-12-03T12:11:00.818Z,72.81
2022-12-03T12:13:04.297Z,73.55
2022-12-03T12:15:35.328Z,73.40
2022-12-03T12:17:40.261Z,73.19
2022-12-03T12:19:46.428Z,71.87
2022-12-03T12:21:51.799Z,73.28
2022-12-03T12:23:55.149Z,72.72
2022-12-03T12:26:07.458Z,72.51
2022-12-03T12:28:10.950Z,73.11
2022-12-03T12:30:16.832Z,73.73
2022-12-03T12:32:24.155Z,73.60
2022-12-03T12:34:28.820Z,73.38
2022-12-03T12:36:32.164Z,73.65
2022-12-03T12:38:35.422Z,73.98
2022-12-03T12:40:40.779Z,72.90
2022-12-03T12:42:53.300Z,73.30
2022-12-03T12:45:02.017Z,73.09
2022-12-03T12:47:13.405Z,72.83
2022-12-03T12:49:20.535Z,73.31
2022-12-03T12:51:26.267Z,73.42
2022-12-03T12:53:32.313Z,73.22
2022-12-03T12:55:35.761Z,73.26
2022-12-03T12:57:39.424Z,72.92
2022-12-03T12:59:42.912Z,71.92
2022-12-03T13:01:48.563Z,71.77
2022-12-03T13:03:53.177Z,72.52
2022-12-03T13:06:00.922Z,72.18
2022-12-03T13:08:16.605Z,72.21
2022-12-03T13:10:29.150Z,80.74
2022-12-03T13:12:32.515Z,73.00
2022-12-03T13:14:37.899Z,71.69
2022-12-03T13:16:41.327Z,72.22
2022-12-03T13:18:47.414Z,72.54
2022-12-03T13:20:50.724Z,72.32
2022-12-03T13:22:54.039Z,72.88
2022-12-03T13:24:59.385Z,72.77
2022-12-03T13:27:09.962Z,73.02
2022-12-03T13:29:17.099Z,73.93
2022-12-03T13:31:26.259Z,73.41
2022-12-03T13:33:31.125Z,73.21
2022-12-03T13:35:36.398Z,71.71
2022-12-03T13:37:39.898Z,72.84
2022-12-03T13:39:47.418Z,72.72
2022-12-03T13:42:10.003Z,73.00
2022-12-03T13:44:19.031Z,72.48
2022-12-03T13:46:22.600Z,72.81
2022-12-03T13:48:30.888Z,72.41
2022-12-03T13:50:37.822Z,72.29
2022-12-03T13:52:41.170Z,72.18
2022-12-03T13:54:44.582Z,71.77
2022-12-03T13:56:48.419Z,71.86
2022-12-03T13:58:53.054Z,71.95
2022-12-03T14:00:56.580Z,71.80
2022-12-03T14:03:00.017Z,71.93
2022-12-03T14:05:03.290Z,71.78
2022-12-03T14:07:06.667Z,71.39
2022-12-03T14:09:09.966Z,71.80
2022-12-03T14:11:34.210Z,72.21
2022-12-03T14:13:36.562Z,72.67
2022-12-03T14:15:41.263Z,72.71
2022-12-03T14:17:46.447Z,72.07
2022-12-03T14:19:49.988Z,72.84
2022-12-03T14:21:53.356Z,72.66
2022-12-03T14:23:56.671Z,71.98
2022-12-03T14:26:00.131Z,72.39
2022-12-03T14:28:08.490Z,72.09
2022-12-03T14:30:12.734Z,71.96
2022-12-03T14:32:17.745Z,71.95
2022-12-03T14:34:21.275Z,71.65
2022-12-03T14:36:24.564Z,72.11
2022-12-03T14:38:28.372Z,72.16
2022-12-03T14:40:31.735Z,72.01
2022-12-03T14:42:35.346Z,71.72
2022-12-03T14:44:40.355Z,71.66
2022-12-03T14:46:43.627Z,71.88
2022-12-03T14:48:48.502Z,72.12
2022-12-03T14:50:52.365Z,72.31
2022-12-03T14:52:55.767Z,72.33
2022-12-03T14:54:59.084Z,71.90
2022-12-03T14:57:02.421Z,71.93
2022-12-03T14:59:05.750Z,72.54
2022-12-03T15:01:09.361Z,71.81
2022-12-03T15:03:12.745Z,72.10
2022-12-03T15:05:18.596Z,72.44
2022-12-03T15:07:23.352Z,72.40
2022-12-03T15:09:27.056Z,72.77
2022-12-03T15:11:30.419Z,72.12
2022-12-03T15:13:33.728Z,71.32
2022-12-03T15:15:37.059Z,71.60
2022-12-03T15:17:40.449Z,72.39
2022-12-03T15:19:43.841Z,72.31
2022-12-03T15:21:48.619Z,72.08
2022-12-03T15:23:51.981Z,71.65
2022-12-03T15:25:55.338Z,71.77
2022-12-03T15:27:58.709Z,71.76
2022-12-03T15:30:02.158Z,72.68
2022-12-03T15:32:05.781Z,72.19
2022-12-03T15:34:09.098Z,72.49
2022-12-03T15:36:12.548Z,72.07
2022-12-03T15:38:17.266Z,71.89
2022-12-03T15:40:20.572Z,72.25
2022-12-03T15:42:24.077Z,72.76
2022-12-03T15:44:27.398Z,72.09
2022-12-03T15:46:31.473Z,72.12
2022-12-03T15:48:35.079Z,72.57
2022-12-03T15:50:40.612Z,72.14
2022-12-03T15:52:43.950Z,72.25
2022-12-03T15:54:50.300Z,72.77
2022-12-03T15:56:57.186Z,72.20
2022-12-03T15:59:01.040Z,72.85
2022-12-03T16:01:04.527Z,72.43
2022-12-03T16:03:08.037Z,72.66
2022-12-03T16:05:13.088Z,73.04
2022-12-03T16:07:16.410Z,72.61
2022-12-03T16:09:25.333Z,72.76
2022-12-03T16:11:31.983Z,72.75
2022-12-03T16:13:35.348Z,73.63
2022-12-03T16:15:38.728Z,72.79
2022-12-03T16:17:42.078Z,73.32
2022-12-03T16:19:45.584Z,72.33
2022-12-03T16:21:48.842Z,73.18
2022-12-03T16:23:52.222Z,73.69
2022-12-03T16:25:55.519Z,73.32
2022-12-03T16:28:00.226Z,79.13
2022-12-03T16:30:04.161Z,73.69
2022-12-03T16:32:07.602Z,73.50
2022-12-03T16:34:11.263Z,73.32
2022-12-03T16:36:14.750Z,72.42
2022-12-03T16:38:18.129Z,72.99
2022-12-03T16:40:21.573Z,73.13
2022-12-03T16:42:25.068Z,72.48
2022-12-03T16:44:43.649Z,72.50
2022-12-03T16:46:47.161Z,72.82
2022-12-03T16:48:51.378Z,73.14
2022-12-03T16:50:54.692Z,72.23
2022-12-03T16:52:58.340Z,72.37
2022-12-03T16:55:01.764Z,72.16
2022-12-03T16:57:05.274Z,73.06
2022-12-03T16:59:08.576Z,72.92
2022-12-03T17:01:13.845Z,72.51
2022-12-03T17:03:18.302Z,72.92
2022-12-03T17:05:21.722Z,73.07
2022-12-03T17:07:25.103Z,72.30
2022-12-03T17:09:28.531Z,72.55
2022-12-03T17:11:32.018Z,72.94
2022-12-03T17:13:35.314Z,72.78
2022-12-03T17:15:38.946Z,73.40
2022-12-03T17:17:43.663Z,72.23
2022-12-03T17:19:46.982Z,72.83
2022-12-03T17:21:50.345Z,73.48
2022-12-03T17:23:53.646Z,73.71
2022-12-03T17:25:56.992Z,73.22
2022-12-03T17:28:00.389Z,73.23
2022-12-03T17:30:05.006Z,72.89
2022-12-03T17:32:08.339Z,73.28
2022-12-03T17:34:13.139Z,73.88
2022-12-03T17:36:16.492Z,72.88
2022-12-03T17:38:19.865Z,73.44
2022-12-03T17:40:23.159Z,73.01
2022-12-03T17:42:26.542Z,73.05
2022-12-03T17:44:29.878Z,72.66
2022-12-03T17:46:33.313Z,72.95
2022-12-03T17:48:36.847Z,73.38
2022-12-03T17:50:42.904Z,72.55
2022-12-03T17:52:46.293Z,72.84
2022-12-03T17:55:10.091Z,72.66
2022-12-03T17:57:13.253Z,73.34
2022-12-03T17:59:17.137Z,72.52
2022-12-03T18:01:20.533Z,72.82
2022-12-03T18:03:23.885Z,72.37
2022-12-03T18:05:27.279Z,72.79
2022-12-03T18:07:32.087Z,73.08
2022-12-03T18:09:35.654Z,73.46
2022-12-03T18:11:39.100Z,73.00
2022-12-03T18:13:42.372Z,72.96
2022-12-03T18:15:45.868Z,72.84
2022-12-03T18:17:49.253Z,72.80
2022-12-03T18:19:53.173Z,73.07
2022-12-03T18:21:56.738Z,73.57
2022-12-03T18:24:02.181Z,73.97
2022-12-03T18:26:06.132Z,73.46
2022-12-03T18:28:09.483Z,73.00
2022-12-03T18:30:13.659Z,73.55
2022-12-03T18:32:28.230Z,73.05
2022-12-03T18:34:31.933Z,73.02
2022-12-03T18:36:37.157Z,73.48
2022-12-03T18:38:40.551Z,72.98
2022-12-03T18:40:46.451Z,72.60
2022-12-03T18:42:49.899Z,73.31
2022-12-03T18:44:55.057Z,73.04
2022-12-03T18:46:59.030Z,72.71
2022-12-03T18:49:02.742Z,73.62
2022-12-03T18:51:10.385Z,73.68
2022-12-03T18:53:15.683Z,73.80
2022-12-03T18:55:20.560Z,73.50
2022-12-03T18:57:25.455Z,72.94
2022-12-03T18:59:28.995Z,73.50
2022-12-03T19:01:33.596Z,72.85
2022-12-03T19:03:36.988Z,73.87
2022-12-03T19:05:40.346Z,73.59
2022-12-03T19:07:44.230Z,73.47
2022-12-03T19:09:47.672Z,74.00
2022-12-03T19:11:51.095Z,74.13
2022-12-03T19:13:57.154Z,74.31
2022-12-03T19:16:02.935Z,74.78
2022-12-03T19:18:07.442Z,74.21
2022-12-03T19:20:12.757Z,74.25
2022-12-03T19:22:16.035Z,73.43
2022-12-03T19:24:26.519Z,74.17
2022-12-03T19:26:29.881Z,74.36
2022-12-03T19:28:33.809Z,74.37
2022-12-03T19:30:38.496Z,75.05
2022-12-03T19:32:41.787Z,74.05
2022-12-03T19:34:45.244Z,74.42
2022-12-03T19:36:48.719Z,74.81
2022-12-03T19:38:56.907Z,74.16
2022-12-03T19:41:02.840Z,75.05
2022-12-03T19:43:06.188Z,75.15
2022-12-03T19:45:10.921Z,75.23
2022-12-03T19:47:15.594Z,74.19
2022-12-03T19:49:20.964Z,74.05
2022-12-03T19:51:34.588Z,74.86
2022-12-03T19:53:39.757Z,74.59
2022-12-03T19:55:43.036Z,74.40
2022-12-03T19:57:46.439Z,74.42
2022-12-03T19:59:49.802Z,74.14
2022-12-03T20:01:53.364Z,75.01
2022-12-03T20:04:00.006Z,75.04
2022-12-03T20:06:03.367Z,75.51
2022-12-03T20:08:08.305Z,75.53
2022-12-03T20:10:11.900Z,75.32
2022-12-03T20:12:15.239Z,77.65
2022-12-03T20:14:18.768Z,75.34
2022-12-03T20:16:22.465Z,75.69
2022-12-03T20:18:25.964Z,74.50
2022-12-03T20:20:30.804Z,74.48
2022-12-03T20:22:34.209Z,74.86
2022-12-03T20:24:37.564Z,74.97
2022-12-03T20:26:40.946Z,76.10
2022-12-03T20:28:45.292Z,75.94
2022-12-03T20:30:58.379Z,76.30
2022-12-03T20:33:01.779Z,77.32
2022-12-03T20:35:06.039Z,76.20
2022-12-03T20:37:10.877Z,74.97
2022-12-03T20:39:14.161Z,75.27
2022-12-03T20:41:19.418Z,76.09
2022-12-03T20:43:23.017Z,75.69
2022-12-03T20:45:27.228Z,77.19
2022-12-03T20:47:30.759Z,75.40
2022-12-03T20:49:34.167Z,75.96
2022-12-03T20:51:37.690Z,76.32
2022-12-03T20:53:43.250Z,90.50
2022-12-03T20:55:46.607Z,77.99
2022-12-03T20:57:50.736Z,76.27
2022-12-03T20:59:55.734Z,75.99
2022-12-03T21:01:59.467Z,77.02
2022-12-03T21:04:04.627Z,76.33
2022-12-03T21:06:08.810Z,77.12
2022-12-03T21:08:12.772Z,76.27
2022-12-03T21:10:33.015Z,77.10
2022-12-03T21:12:38.602Z,77.09
2022-12-03T21:14:42.059Z,75.99
2022-12-03T21:19:12.580Z,76.19
2022-12-03T21:21:18.581Z,75.96
2022-12-03T21:23:22.094Z,75.16
2022-12-03T21:25:26.848Z,75.12
2022-12-03T21:27:32.026Z,75.94
2022-12-03T21:29:35.383Z,75.40
2022-12-03T21:31:41.474Z,75.89
2022-12-03T21:33:45.224Z,75.80
2022-12-03T21:35:48.663Z,75.48
2022-12-03T21:37:52.635Z,75.55
2022-12-03T21:39:56.127Z,75.26
2022-12-03T21:42:25.954Z,75.66
2022-12-03T21:44:24.449Z,75.45
2022-12-03T21:47:10.255Z,75.37
2022-12-03T21:48:51.813Z,75.10
2022-12-03T21:51:03.468Z,75.53
2022-12-03T21:53:07.021Z,75.04
2022-12-03T21:55:11.495Z,75.13
2022-12-03T21:57:16.119Z,75.94
2022-12-03T21:59:19.410Z,76.39
2022-12-03T22:01:24.893Z,76.39
2022-12-03T22:03:28.366Z,75.90
2022-12-03T22:05:31.772Z,76.13
2022-12-03T22:07:35.454Z,75.92
2022-12-03T22:09:38.891Z,76.22
2022-12-03T22:11:42.326Z,86.65
2022-12-03T22:13:47.520Z,78.53
2022-12-03T22:15:50.892Z,77.06
2022-12-03T22:17:54.208Z,76.20
2022-12-03T22:19:57.682Z,76.52
2022-12-03T22:22:01.010Z,76.32
2022-12-03T22:24:04.620Z,76.68
2022-12-03T22:26:09.762Z,77.58
2022-12-03T22:28:13.059Z,77.33
2022-12-03T22:30:17.980Z,77.91
2022-12-03T22:32:21.365Z,77.75
2022-12-03T22:34:24.709Z,76.52
2022-12-03T22:36:28.202Z,77.14
2022-12-03T22:38:33.142Z,76.01
2022-12-03T22:40:39.955Z,75.40
2022-12-03T22:42:49.354Z,76.17
2022-12-03T22:44:54.178Z,75.30
2022-12-03T22:46:58.910Z,76.47
2022-12-03T22:49:07.153Z,76.72
2022-12-03T22:51:14.058Z,75.83
2022-12-03T22:53:17.582Z,76.38
2022-12-03T22:55:20.907Z,76.75
2022-12-03T22:57:24.284Z,75.53
2022-12-03T22:59:27.721Z,75.57
2022-12-03T23:01:33.383Z,75.34
2022-12-03T23:03:38.632Z,75.83
2022-12-03T23:05:42.134Z,75.63
2022-12-03T23:07:45.619Z,75.43
2022-12-03T23:09:49.074Z,75.31
2022-12-03T23:11:52.359Z,75.54
2022-12-03T23:13:55.989Z,74.78
2022-12-03T23:15:59.392Z,74.88
2022-12-03T23:18:02.991Z,74.64
2022-12-03T23:20:09.404Z,74.67
2022-12-03T23:22:12.700Z,74.84
2022-12-03T23:24:16.059Z,74.96
2022-12-03T23:26:19.552Z,74.82
2022-12-03T23:28:22.859Z,75.76
2022-12-03T23:30:26.238Z,75.90
2022-12-03T23:32:29.613Z,76.26
2022-12-03T23:34:33.088Z,76.31
2022-12-03T23:36:37.853Z,76.69
2022-12-03T23:38:41.924Z,76.29
2022-12-03T23:40:48.246Z,76.62
2022-12-03T23:42:51.881Z,77.36
2022-12-03T23:44:55.166Z,77.38
2022-12-03T23:46:58.583Z,75.86
2022-12-03T23:49:03.281Z,76.42
2022-12-03T23:51:07.948Z,76.12
2022-12-03T23:53:12.635Z,76.93
2022-12-03T23:55:16.002Z,76.05
2022-12-03T23:57:19.305Z,76.59
2022-12-03T23:59:22.623Z,76.85
